createdAt,value
2017-10-22T00:00:53.016Z,91.97
2017-10-22T00:03:21.467Z,92.03
2017-10-22T00:05:50.810Z,92.24
2017-10-22T00:08:19.290Z,91.81
2017-10-22T00:10:47.752Z,91.57
2017-10-22T00:13:16.949Z,91.52
2017-10-22T00:15:45.414Z,91.32
2017-10-22T00:18:14.669Z,91.51
2017-10-22T00:20:43.129Z,91.92
2017-10-22T00:23:11.571Z,92.80
2017-10-22T00:25:40.106Z,93.41
2017-10-22T00:28:08.591Z,93.22
2017-10-22T00:30:37.070Z,93.63
2017-10-22T00:33:05.529Z,93.83
2017-10-22T00:35:33.967Z,93.65
2017-10-22T00:38:02.519Z,93.67
2017-10-22T00:40:30.974Z,93.67
2017-10-22T00:42:59.475Z,93.82
2017-10-22T00:45:27.921Z,94.25
2017-10-22T00:47:57.149Z,94.33
2017-10-22T00:50:25.644Z,94.34
2017-10-22T00:52:54.109Z,94.83
2017-10-22T00:55:22.541Z,95.04
2017-10-22T00:57:51.005Z,95.48
2017-10-22T01:00:19.446Z,96.06
2017-10-22T01:02:47.909Z,96.36
2017-10-22T01:05:17.150Z,96.13
2017-10-22T01:07:45.620Z,96.36
2017-10-22T01:10:14.123Z,96.68
2017-10-22T01:12:42.561Z,96.64
2017-10-22T01:15:11.889Z,96.35
2017-10-22T01:17:40.334Z,96.30
2017-10-22T01:20:09.573Z,95.99
2017-10-22T01:22:38.055Z,96.09
2017-10-22T01:25:06.527Z,95.98
2017-10-22T01:27:35.027Z,96.19
2017-10-22T01:30:03.499Z,96.84
2017-10-22T01:32:31.984Z,96.41
2017-10-22T01:35:00.466Z,96.41
2017-10-22T01:37:28.915Z,96.08
2017-10-22T01:39:58.141Z,96.08
2017-10-22T01:42:26.587Z,96.10
2017-10-22T01:44:55.935Z,96.13
2017-10-22T01:47:24.379Z,96.53
2017-10-22T01:49:53.605Z,96.18
2017-10-22T01:52:22.037Z,95.86
2017-10-22T01:54:50.580Z,95.82
2017-10-22T01:57:19.037Z,95.98
2017-10-22T01:59:47.543Z,95.78
2017-10-22T02:02:16.153Z,96.42
2017-10-22T02:04:44.709Z,96.22
2017-10-22T02:07:13.189Z,96.39
2017-10-22T02:09:41.643Z,96.47
2017-10-22T02:12:10.974Z,96.94
2017-10-22T02:14:39.463Z,96.65
2017-10-22T02:17:07.926Z,96.73
2017-10-22T02:19:36.374Z,96.74
2017-10-22T02:22:05.597Z,96.66
2017-10-22T02:24:34.033Z,96.81
2017-10-22T02:27:02.493Z,96.69
2017-10-22T02:29:30.930Z,96.64
2017-10-22T02:32:00.161Z,96.33
2017-10-22T02:34:28.655Z,96.54
2017-10-22T02:36:57.118Z,96.61
2017-10-22T02:39:25.561Z,96.71
2017-10-22T02:41:54.769Z,97.00
2017-10-22T02:44:24.003Z,96.91
2017-10-22T02:46:52.441Z,96.89
2017-10-22T02:49:21.679Z,96.90
2017-10-22T02:51:50.167Z,96.88
2017-10-22T02:54:18.650Z,97.00
2017-10-22T02:56:47.084Z,96.75
2017-10-22T02:59:16.429Z,97.41
2017-10-22T03:01:44.870Z,97.14
2017-10-22T03:04:14.106Z,97.09
2017-10-22T03:06:42.554Z,97.18
2017-10-22T03:09:11.788Z,96.94
2017-10-22T03:11:40.228Z,97.00
2017-10-22T03:14:08.759Z,97.15
2017-10-22T03:16:37.197Z,96.87
2017-10-22T03:19:06.425Z,96.87
2017-10-22T03:21:34.880Z,96.79
2017-10-22T03:24:04.114Z,97.02
2017-10-22T03:26:32.557Z,96.66
2017-10-22T03:29:01.903Z,96.42
2017-10-22T03:31:30.391Z,96.37
2017-10-22T03:33:58.872Z,96.11
2017-10-22T03:36:27.312Z,96.10
2017-10-22T03:38:56.542Z,96.36
2017-10-22T03:41:24.986Z,96.03
2017-10-22T03:43:54.219Z,96.33
2017-10-22T03:46:22.679Z,96.80
2017-10-22T03:48:51.886Z,96.60
2017-10-22T03:51:20.703Z,96.70
2017-10-22T03:53:49.176Z,96.81
2017-10-22T03:56:17.644Z,96.62
2017-10-22T03:58:46.089Z,96.68
2017-10-22T04:01:14.566Z,96.86
2017-10-22T04:03:43.007Z,96.64
2017-10-22T04:06:11.494Z,96.82
2017-10-22T04:08:39.937Z,96.93
2017-10-22T04:11:09.270Z,96.89
2017-10-22T04:13:37.708Z,96.89
2017-10-22T04:16:06.937Z,97.05
2017-10-22T04:18:35.373Z,97.35
2017-10-22T04:21:03.839Z,97.23
2017-10-22T04:23:32.294Z,97.14
2017-10-22T04:26:00.756Z,97.12
2017-10-22T04:28:29.983Z,97.12
2017-10-22T04:30:58.478Z,97.17
2017-10-22T04:33:26.917Z,97.09
2017-10-22T04:35:56.116Z,97.18
2017-10-22T04:38:25.342Z,97.15
2017-10-22T04:40:53.788Z,97.33
2017-10-22T04:43:23.025Z,96.84
2017-10-22T04:45:51.467Z,97.00
2017-10-22T04:48:20.706Z,96.67
2017-10-22T04:50:49.149Z,97.06
2017-10-22T04:53:18.377Z,96.88
2017-10-22T04:55:46.817Z,96.85
2017-10-22T04:58:16.045Z,96.70
2017-10-22T05:00:44.506Z,97.32
2017-10-22T05:03:13.743Z,96.59
2017-10-22T05:05:42.225Z,97.01
2017-10-22T05:08:10.805Z,97.27
2017-10-22T05:10:39.246Z,97.15
2017-10-22T05:13:08.463Z,96.85
2017-10-22T05:15:37.691Z,96.89
2017-10-22T05:18:06.137Z,96.76
2017-10-22T05:20:35.470Z,97.09
2017-10-22T05:23:03.955Z,96.90
2017-10-22T05:25:32.421Z,97.06
2017-10-22T05:28:00.926Z,96.93
2017-10-22T05:30:29.392Z,96.95
2017-10-22T05:32:57.828Z,97.14
2017-10-22T05:35:26.299Z,97.34
2017-10-22T05:37:54.751Z,97.50
2017-10-22T05:40:23.214Z,97.12
2017-10-22T05:42:51.667Z,96.70
2017-10-22T05:45:20.902Z,96.22
2017-10-22T05:47:49.395Z,95.48
2017-10-22T05:50:17.890Z,96.62
2017-10-22T05:52:46.360Z,95.18
2017-10-22T05:55:14.801Z,95.40
2017-10-22T05:57:44.989Z,96.08
2017-10-22T06:00:14.090Z,95.70
2017-10-22T06:02:42.557Z,95.96
2017-10-22T06:05:10.998Z,96.10
2017-10-22T06:07:39.460Z,96.43
2017-10-22T06:10:08.680Z,96.90
2017-10-22T06:12:37.177Z,96.95
2017-10-22T06:15:05.656Z,97.24
2017-10-22T06:17:41.849Z,97.14
2017-10-22T06:20:10.298Z,97.14
2017-10-22T06:22:38.761Z,97.08
2017-10-22T06:25:07.987Z,97.05
2017-10-22T06:27:36.445Z,97.29
2017-10-22T06:30:04.886Z,97.04
2017-10-22T06:32:33.345Z,97.42
2017-10-22T06:35:01.781Z,97.31
2017-10-22T06:37:31.034Z,97.05
2017-10-22T06:39:59.476Z,97.37
2017-10-22T06:42:27.913Z,97.41
2017-10-22T06:44:56.374Z,97.48
2017-10-22T06:47:24.809Z,97.37
2017-10-22T06:49:54.137Z,97.21
2017-10-22T06:52:22.583Z,96.96
2017-10-22T06:54:51.819Z,96.91
2017-10-22T06:57:20.268Z,96.76
2017-10-22T06:59:49.605Z,96.37
2017-10-22T07:02:18.044Z,96.25
2017-10-22T07:04:47.289Z,96.20
2017-10-22T07:07:15.766Z,96.06
2017-10-22T07:09:44.235Z,96.03
2017-10-22T07:12:12.724Z,96.20
2017-10-22T07:14:41.209Z,96.20
2017-10-22T07:17:09.660Z,96.03
2017-10-22T07:19:38.114Z,96.34
2017-10-22T07:22:06.591Z,96.19
2017-10-22T07:24:35.041Z,96.19
2017-10-22T07:27:03.505Z,95.67
2017-10-22T07:29:31.944Z,95.43
2017-10-22T07:32:00.405Z,95.36
2017-10-22T07:34:28.841Z,95.38
2017-10-22T07:36:57.300Z,95.20
2017-10-22T07:39:26.509Z,95.57
2017-10-22T07:41:55.737Z,95.09
2017-10-22T07:44:24.230Z,94.80
2017-10-22T07:46:52.702Z,94.84
2017-10-22T07:49:21.185Z,94.78
2017-10-22T07:51:49.655Z,94.30
2017-10-22T07:54:18.097Z,94.38
2017-10-22T07:56:46.642Z,93.80
2017-10-22T07:59:15.080Z,93.87
2017-10-22T08:01:44.305Z,93.23
2017-10-22T08:04:12.742Z,93.43
2017-10-22T08:06:41.205Z,92.52
2017-10-22T08:09:09.640Z,92.67
2017-10-22T08:11:38.105Z,91.74
2017-10-22T08:14:07.309Z,91.32
2017-10-22T08:16:36.647Z,89.97
2017-10-22T08:19:05.095Z,89.86
2017-10-22T08:21:34.322Z,89.83
2017-10-22T08:24:02.811Z,88.97
2017-10-22T08:26:31.287Z,88.97
2017-10-22T08:28:59.745Z,88.51
2017-10-22T08:31:28.945Z,88.90
2017-10-22T08:33:57.400Z,89.03
2017-10-22T08:36:25.846Z,88.78
2017-10-22T08:38:54.318Z,89.06
2017-10-22T08:41:22.760Z,86.68
2017-10-22T08:43:51.980Z,87.22
2017-10-22T08:46:20.475Z,86.29
2017-10-22T08:48:48.949Z,86.28
2017-10-22T08:51:17.439Z,86.94
2017-10-22T08:53:45.910Z,86.52
2017-10-22T08:56:14.349Z,87.33
2017-10-22T08:58:42.818Z,86.74
2017-10-22T09:01:11.270Z,87.23
2017-10-22T09:03:39.751Z,86.75
2017-10-22T09:06:08.185Z,86.43
2017-10-22T09:08:37.398Z,86.01
2017-10-22T09:11:06.625Z,86.86
2017-10-22T09:13:35.118Z,85.57
2017-10-22T09:16:03.689Z,85.83
2017-10-22T09:18:32.132Z,85.92
2017-10-22T09:21:01.357Z,85.08
2017-10-22T09:23:29.852Z,84.42
2017-10-22T09:25:58.332Z,84.25
2017-10-22T09:28:26.831Z,84.97
2017-10-22T09:30:55.297Z,84.53
2017-10-22T09:33:23.737Z,83.78
2017-10-22T09:35:52.976Z,81.90
2017-10-22T09:38:21.409Z,80.59
2017-10-22T09:40:49.890Z,79.61
2017-10-22T09:43:18.332Z,78.85
2017-10-22T09:45:46.783Z,78.31
2017-10-22T09:48:15.241Z,79.21
2017-10-22T09:50:43.681Z,78.60
2017-10-22T09:53:12.152Z,78.39
2017-10-22T09:55:40.625Z,78.42
2017-10-22T09:58:09.081Z,78.32
2017-10-22T10:00:38.286Z,77.51
2017-10-22T10:03:07.519Z,78.73
2017-10-22T10:05:36.002Z,79.32
2017-10-22T10:08:04.475Z,79.24
2017-10-22T10:10:32.909Z,78.05
2017-10-22T10:13:02.137Z,77.66
2017-10-22T10:15:30.564Z,77.85
2017-10-22T10:17:59.054Z,77.35
2017-10-22T10:20:27.488Z,77.44
2017-10-22T10:22:55.917Z,77.50
2017-10-22T10:25:24.373Z,77.74
2017-10-22T10:27:52.803Z,79.15
2017-10-22T10:30:22.041Z,76.72
2017-10-22T10:32:50.526Z,76.35
2017-10-22T10:35:19.014Z,78.27
2017-10-22T10:37:47.444Z,77.33
2017-10-22T10:40:15.968Z,77.75
2017-10-22T10:42:44.400Z,78.87
2017-10-22T10:45:12.858Z,77.18
2017-10-22T10:47:41.319Z,77.23
2017-10-22T10:50:09.782Z,77.06
2017-10-22T10:52:38.216Z,76.78
2017-10-22T10:55:07.461Z,76.15
2017-10-22T10:57:35.896Z,76.39
2017-10-22T11:00:04.329Z,76.39
2017-10-22T11:02:32.828Z,76.43
2017-10-22T11:05:01.305Z,75.97
2017-10-22T11:07:29.769Z,75.88
2017-10-22T11:09:58.209Z,77.24
2017-10-22T11:12:26.674Z,77.03
2017-10-22T11:14:55.109Z,77.52
2017-10-22T11:17:23.613Z,77.20
2017-10-22T11:19:52.067Z,77.16
2017-10-22T11:22:21.299Z,77.07
2017-10-22T11:24:49.737Z,76.42
2017-10-22T11:27:18.970Z,76.12
2017-10-22T11:29:47.409Z,76.73
2017-10-22T11:32:16.653Z,75.87
2017-10-22T11:34:45.081Z,75.70
2017-10-22T11:37:14.304Z,76.52
2017-10-22T11:39:43.514Z,75.31
2017-10-22T11:42:12.013Z,75.31
2017-10-22T11:44:40.500Z,75.54
2017-10-22T11:47:08.933Z,75.66
2017-10-22T11:49:37.398Z,75.16
2017-10-22T11:52:05.939Z,73.70
2017-10-22T11:54:34.393Z,73.49
2017-10-22T11:57:03.626Z,73.88
2017-10-22T11:59:32.094Z,73.88
2017-10-22T12:02:00.528Z,72.67
2017-10-22T12:04:28.985Z,73.20
2017-10-22T12:06:57.426Z,72.42
2017-10-22T12:09:26.651Z,72.77
2017-10-22T12:11:55.134Z,72.12
2017-10-22T12:14:23.595Z,72.16
2017-10-22T12:16:52.029Z,71.43
2017-10-22T12:19:20.469Z,72.27
2017-10-22T12:21:48.910Z,72.19
2017-10-22T12:24:18.154Z,72.19
2017-10-22T12:26:46.588Z,73.08
2017-10-22T12:29:15.123Z,72.60
2017-10-22T12:31:43.591Z,72.46
2017-10-22T12:34:12.082Z,72.67
2017-10-22T12:36:40.565Z,72.62
2017-10-22T12:39:09.013Z,73.02
2017-10-22T12:41:38.356Z,72.42
2017-10-22T12:44:06.790Z,72.48
2017-10-22T12:46:36.134Z,72.32
2017-10-22T12:49:04.564Z,72.04
2017-10-22T12:51:33.021Z,71.23
2017-10-22T12:54:02.177Z,72.41
2017-10-22T12:56:30.673Z,72.65
2017-10-22T12:58:59.114Z,74.29
2017-10-22T13:01:28.375Z,73.69
2017-10-22T13:03:56.846Z,73.96
2017-10-22T13:06:25.317Z,74.27
2017-10-22T13:08:53.769Z,74.57
2017-10-22T13:11:23.002Z,74.63
2017-10-22T13:13:51.503Z,74.89
2017-10-22T13:16:19.946Z,74.73
2017-10-22T13:18:48.446Z,74.44
2017-10-22T13:21:16.892Z,74.37
2017-10-22T13:23:46.116Z,73.60
2017-10-22T13:26:14.550Z,73.07
2017-10-22T13:28:43.013Z,73.34
2017-10-22T13:31:11.449Z,73.38
2017-10-22T13:33:39.960Z,72.74
2017-10-22T13:36:08.398Z,72.92
2017-10-22T13:38:37.636Z,75.58
2017-10-22T13:41:06.113Z,74.09
2017-10-22T13:43:34.702Z,74.58
2017-10-22T13:46:03.136Z,75.63
2017-10-22T13:48:31.656Z,75.48
2017-10-22T13:51:00.146Z,74.29
2017-10-22T13:53:28.631Z,73.32
2017-10-22T13:55:57.088Z,74.36
2017-10-22T13:58:26.290Z,73.96
2017-10-22T14:00:54.758Z,73.26
2017-10-22T14:03:23.974Z,73.44
2017-10-22T14:05:52.443Z,73.04
2017-10-22T14:08:21.658Z,71.59
2017-10-22T14:10:50.125Z,72.07
2017-10-22T14:13:18.570Z,71.56
2017-10-22T14:15:47.028Z,71.06
2017-10-22T14:18:15.461Z,71.16
2017-10-22T14:20:44.685Z,70.76
2017-10-22T14:23:13.117Z,71.71
2017-10-22T14:25:42.309Z,72.42
2017-10-22T14:28:10.862Z,72.00
2017-10-22T14:30:39.336Z,72.00
2017-10-22T14:33:07.803Z,72.68
2017-10-22T14:35:36.306Z,73.24
2017-10-22T14:38:04.782Z,73.20
2017-10-22T14:40:33.213Z,73.14
2017-10-22T14:43:01.665Z,73.40
2017-10-22T14:45:30.106Z,73.24
2017-10-22T14:47:59.324Z,73.19
2017-10-22T14:50:27.758Z,73.42
2017-10-22T14:52:56.209Z,73.93
2017-10-22T14:55:24.680Z,73.68
2017-10-22T14:57:53.163Z,74.22
2017-10-22T15:00:21.601Z,74.08
2017-10-22T15:02:50.825Z,74.43
2017-10-22T15:05:19.266Z,75.36
2017-10-22T15:07:47.721Z,75.39
2017-10-22T15:10:16.162Z,76.03
2017-10-22T15:12:44.641Z,77.08
2017-10-22T15:15:13.078Z,76.35
2017-10-22T15:17:41.509Z,75.97
2017-10-22T15:20:09.969Z,75.46
2017-10-22T15:22:39.164Z,76.66
2017-10-22T15:25:08.385Z,77.52
2017-10-22T15:27:36.822Z,77.82
2017-10-22T15:30:05.277Z,78.08
2017-10-22T15:32:33.714Z,78.91
2017-10-22T15:35:02.937Z,78.50
2017-10-22T15:37:31.421Z,79.34
2017-10-22T15:39:59.889Z,79.06
2017-10-22T15:42:28.322Z,79.61
2017-10-22T15:44:56.785Z,79.96
2017-10-22T15:47:25.249Z,79.74
2017-10-22T15:49:53.711Z,80.13
2017-10-22T15:52:22.144Z,80.93
2017-10-22T15:54:50.582Z,81.04
2017-10-22T15:57:19.037Z,80.91
2017-10-22T15:59:48.237Z,80.99
2017-10-22T16:02:17.473Z,81.05
2017-10-22T16:04:45.959Z,80.67
2017-10-22T16:07:14.438Z,80.94
2017-10-22T16:09:42.876Z,80.93
2017-10-22T16:12:11.337Z,81.36
2017-10-22T16:14:39.884Z,81.53
2017-10-22T16:17:08.370Z,82.00
2017-10-22T16:19:36.813Z,81.93
2017-10-22T16:22:06.034Z,82.35
2017-10-22T16:24:34.471Z,82.52
2017-10-22T16:27:03.009Z,82.86
2017-10-22T16:29:31.436Z,82.88
2017-10-22T16:31:59.869Z,82.99
2017-10-22T16:34:28.331Z,83.09
2017-10-22T16:36:57.563Z,83.35
2017-10-22T16:39:26.020Z,83.77
2017-10-22T16:41:54.458Z,83.26
2017-10-22T16:44:23.009Z,83.42
2017-10-22T16:46:51.455Z,83.32
2017-10-22T16:49:20.787Z,83.49
2017-10-22T16:51:49.274Z,83.55
2017-10-22T16:54:17.740Z,83.91
2017-10-22T16:56:46.173Z,84.28
2017-10-22T16:59:15.430Z,84.40
2017-10-22T17:01:43.858Z,84.81
2017-10-22T17:04:13.118Z,85.00
2017-10-22T17:06:41.557Z,85.49
2017-10-22T17:09:10.902Z,85.70
2017-10-22T17:11:39.378Z,85.82
2017-10-22T17:14:07.854Z,86.25
2017-10-22T17:16:36.337Z,85.71
2017-10-22T17:19:04.817Z,85.96
2017-10-22T17:21:33.265Z,85.71
2017-10-22T17:24:02.498Z,85.46
2017-10-22T17:26:30.928Z,85.42
2017-10-22T17:28:59.417Z,85.08
2017-10-22T17:31:27.853Z,85.01
2017-10-22T17:33:56.330Z,85.21
2017-10-22T17:36:24.784Z,85.26
2017-10-22T17:38:53.230Z,85.24
2017-10-22T17:41:21.782Z,85.57
2017-10-22T17:43:50.217Z,85.47
2017-10-22T17:46:19.436Z,85.74
2017-10-22T17:48:47.871Z,85.99
2017-10-22T17:51:16.422Z,86.13
2017-10-22T17:53:44.866Z,85.90
2017-10-22T17:56:14.085Z,86.05
2017-10-22T17:58:42.513Z,85.94
2017-10-22T18:01:10.979Z,86.25
2017-10-22T18:03:39.457Z,86.16
2017-10-22T18:06:08.037Z,86.19
2017-10-22T18:08:36.474Z,86.17
2017-10-22T18:11:05.820Z,86.39
2017-10-22T18:13:34.256Z,86.25
2017-10-22T18:16:03.473Z,86.44
2017-10-22T18:18:31.982Z,86.43
2017-10-22T18:21:00.552Z,86.59
2017-10-22T18:23:28.985Z,86.52
2017-10-22T18:25:57.428Z,86.64
2017-10-22T18:28:25.918Z,87.14
2017-10-22T18:30:54.349Z,86.98
2017-10-22T18:33:23.890Z,87.10
2017-10-22T18:35:52.325Z,87.04
2017-10-22T18:38:20.784Z,87.07
2017-10-22T18:40:49.227Z,87.33
2017-10-22T18:43:17.686Z,87.30
2017-10-22T18:45:46.880Z,87.35
2017-10-22T18:48:16.212Z,87.44
2017-10-22T18:50:44.641Z,87.43
2017-10-22T18:53:13.096Z,87.64
2017-10-22T18:55:41.556Z,87.61
2017-10-22T18:58:10.013Z,87.59
2017-10-22T19:00:39.214Z,87.63
2017-10-22T19:03:08.537Z,87.80
2017-10-22T19:05:36.974Z,87.85
2017-10-22T19:08:05.411Z,88.03
2017-10-22T19:10:33.883Z,87.89
2017-10-22T19:13:02.376Z,87.97
2017-10-22T19:15:30.838Z,88.06
2017-10-22T19:17:59.273Z,88.37
2017-10-22T19:20:27.725Z,88.57
2017-10-22T19:22:56.188Z,88.61
2017-10-22T19:25:24.668Z,88.56
2017-10-22T19:27:53.105Z,88.67
2017-10-22T19:30:21.647Z,88.62
2017-10-22T19:32:50.082Z,88.74
2017-10-22T19:35:19.310Z,88.65
2017-10-22T19:37:47.800Z,88.97
2017-10-22T19:40:16.286Z,89.10
2017-10-22T19:42:44.728Z,89.44
2017-10-22T19:45:13.963Z,89.30
2017-10-22T19:47:42.452Z,89.69
2017-10-22T19:50:10.894Z,90.13
2017-10-22T19:52:40.238Z,90.22
2017-10-22T19:55:08.711Z,90.44
2017-10-22T19:57:37.155Z,90.47
2017-10-22T20:00:06.357Z,90.91
2017-10-22T20:02:36.010Z,91.24
2017-10-22T20:05:04.441Z,91.34
2017-10-22T20:07:33.676Z,91.61
2017-10-22T20:10:02.118Z,92.08
2017-10-22T20:12:30.582Z,93.02
2017-10-22T20:14:59.017Z,93.64
2017-10-22T20:17:27.478Z,93.97
2017-10-22T20:19:56.688Z,94.09
2017-10-22T20:22:25.197Z,94.21
2017-10-22T20:24:53.675Z,94.32
2017-10-22T20:27:22.163Z,94.27
2017-10-22T20:29:50.601Z,94.57
2017-10-22T20:32:19.802Z,94.50
2017-10-22T20:34:49.022Z,94.71
2017-10-22T20:37:17.512Z,94.64
2017-10-22T20:39:45.965Z,94.81
2017-10-22T20:42:15.165Z,94.84
2017-10-22T20:44:44.493Z,95.07
2017-10-22T20:47:12.983Z,95.07
2017-10-22T20:49:41.432Z,94.99
2017-10-22T20:52:10.670Z,94.98
2017-10-22T20:54:39.145Z,94.76
2017-10-22T20:57:07.583Z,95.00
2017-10-22T20:59:36.827Z,95.22
2017-10-22T21:02:05.304Z,94.83
2017-10-22T21:04:33.767Z,94.73
2017-10-22T21:07:02.212Z,94.77
2017-10-22T21:09:30.745Z,94.49
2017-10-22T21:11:59.193Z,94.97
2017-10-22T21:14:28.401Z,94.71
2017-10-22T21:16:57.640Z,94.32
2017-10-22T21:19:26.122Z,94.33
2017-10-22T21:21:54.587Z,94.78
2017-10-22T21:24:23.012Z,94.48
2017-10-22T21:26:51.564Z,94.59
2017-10-22T21:29:20.010Z,94.45
2017-10-22T21:31:49.228Z,94.48
2017-10-22T21:34:17.662Z,94.80
2017-10-22T21:36:46.121Z,94.69
2017-10-22T21:39:14.567Z,94.35
2017-10-22T21:41:43.029Z,94.50
2017-10-22T21:44:12.260Z,94.39
2017-10-22T21:46:40.745Z,94.52
2017-10-22T21:49:09.181Z,94.71
2017-10-22T21:51:37.641Z,94.60
2017-10-22T21:54:06.189Z,94.58
2017-10-22T21:56:34.621Z,94.78
2017-10-22T21:59:03.165Z,94.50
2017-10-22T22:01:31.592Z,94.35
2017-10-22T22:04:00.071Z,94.59
2017-10-22T22:06:28.537Z,94.36
2017-10-22T22:08:57.005Z,94.47
2017-10-22T22:11:25.442Z,94.42
2017-10-22T22:13:53.910Z,94.30
2017-10-22T22:16:23.127Z,93.89
2017-10-22T22:18:51.589Z,93.86
2017-10-22T22:21:20.792Z,93.90
2017-10-22T22:23:50.021Z,93.92
2017-10-22T22:26:18.513Z,94.16
2017-10-22T22:28:46.979Z,94.18
2017-10-22T22:31:15.413Z,93.94
2017-10-22T22:33:43.869Z,94.15
2017-10-22T22:36:12.304Z,93.75
2017-10-22T22:38:41.551Z,93.78
2017-10-22T22:41:09.999Z,93.61
2017-10-22T22:43:38.507Z,93.55
2017-10-22T22:46:06.969Z,93.52
2017-10-22T22:48:35.405Z,93.57
2017-10-22T22:51:03.954Z,93.84
2017-10-22T22:53:32.403Z,93.57
2017-10-22T22:56:00.870Z,93.31
2017-10-22T22:58:30.073Z,93.56
2017-10-22T23:00:59.300Z,93.56
2017-10-22T23:03:27.750Z,93.47
2017-10-22T23:05:57.096Z,93.68
2017-10-22T23:08:25.537Z,93.31
2017-10-22T23:10:54.880Z,93.33
2017-10-22T23:13:23.314Z,93.14
2017-10-22T23:15:52.651Z,93.09
2017-10-22T23:18:21.099Z,93.30
2017-10-22T23:20:50.307Z,93.34
2017-10-22T23:23:19.533Z,92.94
2017-10-22T23:25:47.974Z,92.90
2017-10-22T23:28:17.326Z,92.92
2017-10-22T23:30:45.760Z,92.83
2017-10-22T23:33:14.989Z,92.61
2017-10-22T23:35:43.425Z,92.95
2017-10-22T23:38:11.886Z,92.56
2017-10-22T23:40:40.330Z,92.23
2017-10-22T23:43:08.827Z,92.80
2017-10-22T23:45:37.272Z,92.42
2017-10-22T23:48:06.599Z,92.23
2017-10-22T23:50:35.093Z,92.04
2017-10-22T23:53:03.556Z,91.99
2017-10-22T23:55:31.989Z,92.25
2017-10-22T23:58:00.538Z,92.28
